createdAt,value
2023-04-22T00:01:37.201Z,6.70
2023-04-22T00:04:11.668Z,7.20
2023-04-22T00:06:46.804Z,7.70
2023-04-22T00:09:21.049Z,7.20
2023-04-22T00:11:55.356Z,7.20
2023-04-22T00:14:29.630Z,6.50
2023-04-22T00:17:04.060Z,7.00
2023-04-22T00:19:38.753Z,6.60
2023-04-22T00:22:13.198Z,6.50
2023-04-22T00:24:47.695Z,6.40
2023-04-22T00:27:21.953Z,5.70
2023-04-22T00:29:55.956Z,6.40
2023-04-22T00:32:30.156Z,6.60
2023-04-22T00:35:04.527Z,5.90
2023-04-22T00:37:38.740Z,6.30
2023-04-22T00:40:15.580Z,5.80
2023-04-22T00:42:52.586Z,7.70
2023-04-22T00:45:29.721Z,5.80
2023-04-22T00:48:05.111Z,5.90
2023-04-22T00:50:39.419Z,5.90
2023-04-22T00:53:13.573Z,6.00
2023-04-22T00:55:47.878Z,6.30
2023-04-22T00:58:24.696Z,6.00
2023-04-22T01:01:00.294Z,5.50
2023-04-22T01:03:37.705Z,5.40
2023-04-22T01:06:12.620Z,5.50
2023-04-22T01:08:47.439Z,6.70
2023-04-22T01:11:21.946Z,5.50
2023-04-22T01:13:56.530Z,6.00
2023-04-22T01:16:34.156Z,6.10
2023-04-22T01:19:09.819Z,5.80
2023-04-22T01:21:46.763Z,5.00
2023-04-22T01:24:21.246Z,6.00
2023-04-22T01:26:55.836Z,6.60
2023-04-22T01:29:30.751Z,6.30
2023-04-22T01:32:06.707Z,6.70
2023-04-22T01:34:41.029Z,7.10
2023-04-22T01:37:15.427Z,5.40
2023-04-22T01:39:50.429Z,5.70
2023-04-22T01:42:24.759Z,6.70
2023-04-22T01:44:59.844Z,6.50
2023-04-22T01:47:34.085Z,5.90
2023-04-22T01:50:10.214Z,6.20
2023-04-22T01:52:45.692Z,8.80
2023-04-22T01:55:19.925Z,7.60
2023-04-22T01:57:54.059Z,7.40
2023-04-22T02:00:28.230Z,6.90
2023-04-22T02:03:02.644Z,6.80
2023-04-22T02:05:38.684Z,7.40
2023-04-22T02:08:13.328Z,6.30
2023-04-22T02:10:47.694Z,7.00
2023-04-22T02:13:21.764Z,6.10
2023-04-22T02:15:56.132Z,7.90
2023-04-22T02:18:30.760Z,7.20
2023-04-22T02:21:05.423Z,7.50
2023-04-22T02:23:41.502Z,6.50
2023-04-22T02:26:15.639Z,6.70
2023-04-22T02:28:49.849Z,7.70
2023-04-22T02:31:24.107Z,6.60
2023-04-22T02:33:58.475Z,7.00
2023-04-22T02:36:34.720Z,7.00
2023-04-22T02:39:09.163Z,7.10
2023-04-22T02:41:44.133Z,6.60
2023-04-22T02:44:18.321Z,7.00
2023-04-22T02:46:52.454Z,6.40
2023-04-22T02:49:26.534Z,6.20
2023-04-22T02:52:01.859Z,6.50
2023-04-22T02:54:35.939Z,6.70
2023-04-22T02:57:10.346Z,6.50
2023-04-22T02:59:44.386Z,6.50
2023-04-22T03:02:19.787Z,6.50
2023-04-22T03:05:07.252Z,7.10
2023-04-22T03:07:41.743Z,7.20
2023-04-22T03:10:16.178Z,7.30
2023-04-22T03:12:50.317Z,6.50
2023-04-22T03:15:24.665Z,6.30
2023-04-22T03:17:59.392Z,6.00
2023-04-22T03:20:33.876Z,6.60
2023-04-22T03:23:09.074Z,6.10
2023-04-22T03:25:44.335Z,5.80
2023-04-22T03:28:19.291Z,6.40
2023-04-22T03:30:53.476Z,6.00
2023-04-22T03:33:28.084Z,6.10
2023-04-22T03:36:07.554Z,5.80
2023-04-22T03:38:41.762Z,7.10
2023-04-22T03:41:16.485Z,6.30
2023-04-22T03:43:53.496Z,6.60
2023-04-22T03:46:28.822Z,6.50
2023-04-22T03:49:23.215Z,7.10
2023-04-22T03:51:57.390Z,6.80
2023-04-22T03:54:32.206Z,6.00
2023-04-22T03:57:07.133Z,6.20
2023-04-22T03:59:42.031Z,6.60
2023-04-22T04:02:17.730Z,7.00
2023-04-22T04:04:52.881Z,7.60
2023-04-22T04:07:27.502Z,8.20
2023-04-22T04:10:02.091Z,8.30
2023-04-22T04:12:36.547Z,7.10
2023-04-22T04:15:13.316Z,7.40
2023-04-22T04:17:48.310Z,7.00
2023-04-22T04:20:22.911Z,6.90
2023-04-22T04:22:57.637Z,7.80
2023-04-22T04:25:39.094Z,8.00
2023-04-22T04:28:17.840Z,7.70
2023-04-22T04:30:53.642Z,6.90
2023-04-22T04:33:28.730Z,7.30
2023-04-22T04:36:03.451Z,8.00
2023-04-22T04:38:40.042Z,7.20
2023-04-22T04:41:14.667Z,7.60
2023-04-22T04:43:50.475Z,7.70
2023-04-22T04:46:30.612Z,7.50
2023-04-22T04:49:12.670Z,6.60
2023-04-22T04:51:57.544Z,6.70
2023-04-22T04:54:32.386Z,6.50
2023-04-22T04:57:10.703Z,7.60
2023-04-22T04:59:45.076Z,7.30
2023-04-22T05:02:19.624Z,8.60
2023-04-22T05:04:54.503Z,7.90
2023-04-22T05:07:29.180Z,7.60
2023-04-22T05:10:07.293Z,7.40
2023-04-22T05:12:41.839Z,7.60
2023-04-22T05:15:18.361Z,7.40
2023-04-22T05:17:52.855Z,7.70
2023-04-22T05:20:27.452Z,6.70
2023-04-22T05:23:01.926Z,7.00
2023-04-22T05:25:36.341Z,8.10
2023-04-22T05:28:14.310Z,8.10
2023-04-22T05:30:53.812Z,7.70
2023-04-22T05:33:27.991Z,8.50
2023-04-22T05:36:03.922Z,8.20
2023-04-22T05:38:38.271Z,8.80
2023-04-22T05:41:12.486Z,8.00
2023-04-22T05:43:46.918Z,7.20
2023-04-22T05:46:25.211Z,7.20
2023-04-22T05:48:59.807Z,8.20
2023-04-22T05:52:06.032Z,7.90
2023-04-22T05:54:48.119Z,7.50
2023-04-22T05:57:22.548Z,8.30
2023-04-22T05:59:56.783Z,8.20
2023-04-22T06:02:31.581Z,8.10
2023-04-22T06:05:07.034Z,7.10
2023-04-22T06:07:41.586Z,7.20
2023-04-22T06:10:15.788Z,6.80
2023-04-22T06:12:50.027Z,8.40
2023-04-22T06:15:24.330Z,8.00
2023-04-22T06:17:58.774Z,8.30
2023-04-22T06:20:36.211Z,8.60
2023-04-22T06:23:10.653Z,8.60
2023-04-22T06:25:44.866Z,9.10
2023-04-22T06:28:19.240Z,9.10
2023-04-22T06:30:54.110Z,9.00
2023-04-22T06:33:28.465Z,8.60
2023-04-22T06:36:05.054Z,7.40
2023-04-22T06:38:40.209Z,7.00
2023-04-22T06:41:41.843Z,7.90
2023-04-22T06:44:26.914Z,8.50
2023-04-22T06:47:30.402Z,6.30
2023-04-22T06:50:16.551Z,8.00
2023-04-22T06:53:03.083Z,7.40
2023-04-22T06:55:37.659Z,7.20
2023-04-22T06:58:11.944Z,6.90
2023-04-22T07:00:46.365Z,7.50
2023-04-22T07:03:20.709Z,7.20
2023-04-22T07:06:03.768Z,7.50
2023-04-22T07:08:38.186Z,7.50
2023-04-22T07:11:14.437Z,7.70
2023-04-22T07:14:07.814Z,7.40
2023-04-22T07:16:42.175Z,7.10
2023-04-22T07:19:16.414Z,8.00
2023-04-22T07:21:51.017Z,7.80
2023-04-22T07:24:25.303Z,8.40
2023-04-22T07:26:59.958Z,8.10
2023-04-22T07:29:34.172Z,7.90
2023-04-22T07:32:09.170Z,7.80
2023-04-22T07:34:43.613Z,7.60
2023-04-22T07:37:18.127Z,8.20
2023-04-22T07:39:52.382Z,8.20
2023-04-22T07:42:26.784Z,8.50
2023-04-22T07:45:01.117Z,7.80
2023-04-22T07:47:35.735Z,7.50
2023-04-22T07:50:13.208Z,7.40
2023-04-22T07:52:47.462Z,7.10
2023-04-22T07:55:21.887Z,7.00
2023-04-22T07:57:56.178Z,7.00
2023-04-22T08:00:30.808Z,6.70
2023-04-22T08:03:05.424Z,6.70
2023-04-22T08:05:40.340Z,7.30
2023-04-22T08:08:14.787Z,6.70
2023-04-22T08:10:49.352Z,7.40
2023-04-22T08:13:23.635Z,6.80
2023-04-22T08:15:57.981Z,6.70
2023-04-22T08:18:32.729Z,6.10
2023-04-22T08:21:07.472Z,7.10
2023-04-22T08:23:41.819Z,6.50
2023-04-22T08:26:17.033Z,6.00
2023-04-22T08:28:51.347Z,6.00
2023-04-22T08:31:25.849Z,6.50
2023-04-22T08:34:00.748Z,6.40
2023-04-22T08:36:36.945Z,6.40
2023-04-22T08:39:11.978Z,6.80
2023-04-22T08:41:49.287Z,6.30
2023-04-22T08:44:25.013Z,6.60
2023-04-22T08:47:02.947Z,6.10
2023-04-22T08:49:40.691Z,6.40
2023-04-22T08:52:16.491Z,6.40
2023-04-22T08:54:50.711Z,6.40
2023-04-22T08:57:25.608Z,6.60
2023-04-22T09:00:00.237Z,5.40
2023-04-22T09:02:38.273Z,6.20
2023-04-22T09:05:15.425Z,5.70
2023-04-22T09:07:50.175Z,5.80
2023-04-22T09:10:25.033Z,6.10
2023-04-22T09:12:59.806Z,6.10
2023-04-22T09:15:34.995Z,7.00
2023-04-22T09:18:12.100Z,5.80
2023-04-22T09:20:48.242Z,5.70
2023-04-22T09:23:22.395Z,5.30
2023-04-22T09:26:00.320Z,5.40
2023-04-22T09:28:37.981Z,5.10
2023-04-22T09:31:18.691Z,4.80
2023-04-22T09:33:58.754Z,5.40
2023-04-22T09:36:37.526Z,4.60
2023-04-22T09:39:12.640Z,3.60
2023-04-22T09:41:46.866Z,4.00
2023-04-22T09:44:21.886Z,3.80
2023-04-22T09:46:57.207Z,3.30
2023-04-22T09:49:32.026Z,3.20
2023-04-22T09:52:06.390Z,3.40
2023-04-22T09:54:51.845Z,3.30
2023-04-22T09:57:27.779Z,4.50
2023-04-22T10:00:07.990Z,3.80
2023-04-22T10:02:42.366Z,3.40
2023-04-22T10:05:16.874Z,2.90
2023-04-22T10:07:51.387Z,3.80
2023-04-22T10:10:26.195Z,3.60
2023-04-22T10:13:00.987Z,3.60
2023-04-22T10:15:40.783Z,3.30
2023-04-22T10:18:20.370Z,3.50
2023-04-22T10:20:57.846Z,3.10
2023-04-22T10:23:37.420Z,3.10
2023-04-22T10:26:12.563Z,3.30
2023-04-22T10:28:49.165Z,3.20
2023-04-22T10:31:28.508Z,2.80
2023-04-22T10:34:16.872Z,3.20
2023-04-22T10:37:08.021Z,3.00
2023-04-22T10:39:44.165Z,3.80
2023-04-22T10:42:21.946Z,4.00
2023-04-22T10:45:02.109Z,3.50
2023-04-22T10:47:39.088Z,4.30
2023-04-22T10:50:21.541Z,3.50
2023-04-22T10:52:59.256Z,3.00
2023-04-22T10:55:56.306Z,3.70
2023-04-22T10:58:34.987Z,3.20
2023-04-22T11:01:19.352Z,3.30
2023-04-22T11:03:54.226Z,3.70
2023-04-22T11:06:30.485Z,3.00
2023-04-22T11:09:16.817Z,3.50
2023-04-22T11:11:51.467Z,3.10
2023-04-22T11:14:26.471Z,2.90
2023-04-22T11:17:01.539Z,3.60
2023-04-22T11:19:36.020Z,3.30
2023-04-22T11:22:11.698Z,3.50
2023-04-22T11:24:56.923Z,3.30
2023-04-22T11:27:31.762Z,3.30
2023-04-22T11:30:09.308Z,3.40
2023-04-22T11:32:46.721Z,3.50
2023-04-22T11:35:24.117Z,3.30
2023-04-22T11:38:00.753Z,3.40
2023-04-22T11:40:39.046Z,3.00
2023-04-22T11:43:14.984Z,2.80
2023-04-22T11:45:49.683Z,3.50
2023-04-22T11:48:24.284Z,3.30
2023-04-22T11:51:13.120Z,3.30
2023-04-22T11:53:55.502Z,3.20
2023-04-22T11:56:30.439Z,3.50
2023-04-22T11:59:08.553Z,3.40
2023-04-22T12:01:45.214Z,3.60
2023-04-22T12:04:22.153Z,3.70
2023-04-22T12:06:56.691Z,3.60
2023-04-22T12:09:32.248Z,3.60
2023-04-22T12:12:08.344Z,3.10
2023-04-22T12:14:46.599Z,3.60
2023-04-22T12:17:26.065Z,4.20
2023-04-22T12:20:00.900Z,3.00
2023-04-22T12:22:35.390Z,3.30
2023-04-22T12:25:12.886Z,3.20
2023-04-22T12:27:48.328Z,3.20
2023-04-22T12:30:23.846Z,3.80
2023-04-22T12:32:58.492Z,3.40
2023-04-22T12:35:32.845Z,3.40
2023-04-22T12:38:07.233Z,3.60
2023-04-22T12:40:41.927Z,3.20
2023-04-22T12:43:16.541Z,3.30
2023-04-22T12:45:51.120Z,2.90
2023-04-22T12:48:25.485Z,3.10
2023-04-22T12:51:00.147Z,3.00
2023-04-22T12:53:35.928Z,3.20
2023-04-22T12:56:10.859Z,3.00
2023-04-22T12:58:45.253Z,2.80
2023-04-22T13:01:19.645Z,2.90
2023-04-22T13:03:54.850Z,2.70
2023-04-22T13:06:31.571Z,2.80
2023-04-22T13:09:06.914Z,3.00
2023-04-22T13:11:41.595Z,3.00
2023-04-22T13:14:16.261Z,2.90
2023-04-22T13:16:50.589Z,2.70
2023-04-22T13:19:27.084Z,3.00
2023-04-22T13:22:01.326Z,2.70
2023-04-22T13:24:35.734Z,2.70
2023-04-22T13:27:10.345Z,2.90
2023-04-22T13:29:45.327Z,2.80
2023-04-22T13:32:19.645Z,2.90
2023-04-22T13:34:53.856Z,3.00
2023-04-22T13:37:28.057Z,2.80
2023-04-22T13:40:02.497Z,3.20
2023-04-22T13:42:37.040Z,3.00
2023-04-22T13:45:13.401Z,3.20
2023-04-22T13:47:47.681Z,3.00
2023-04-22T13:50:21.970Z,3.30
2023-04-22T13:52:56.627Z,3.00
2023-04-22T13:55:30.796Z,3.20
2023-04-22T13:58:05.579Z,3.10
2023-04-22T14:00:40.214Z,3.00
2023-04-22T14:03:14.631Z,2.80
2023-04-22T14:05:49.228Z,2.90
2023-04-22T14:08:23.418Z,2.90
2023-04-22T14:10:59.444Z,2.90
2023-04-22T14:13:34.293Z,3.20
2023-04-22T14:16:12.091Z,3.00
2023-04-22T14:18:47.165Z,2.90
2023-04-22T14:21:21.292Z,2.90
2023-04-22T14:23:55.729Z,2.90
2023-04-22T14:26:32.650Z,2.90
2023-04-22T14:29:07.094Z,3.00
2023-04-22T14:31:41.657Z,2.70
2023-04-22T14:34:16.077Z,2.70
2023-04-22T14:36:50.382Z,3.00
2023-04-22T14:39:24.517Z,3.30
2023-04-22T14:41:58.711Z,3.20
2023-04-22T14:44:32.982Z,3.10
2023-04-22T14:47:07.888Z,3.10
2023-04-22T14:49:42.281Z,3.00
2023-04-22T14:52:17.222Z,3.00
2023-04-22T14:54:52.195Z,2.90
2023-04-22T14:57:26.572Z,3.00
2023-04-22T15:00:00.744Z,2.50
2023-04-22T15:02:35.873Z,2.70
2023-04-22T15:05:13.088Z,2.90
2023-04-22T15:07:47.218Z,2.60
2023-04-22T15:10:21.613Z,2.80
2023-04-22T15:12:56.379Z,2.80
2023-04-22T15:15:30.738Z,3.20
2023-04-22T15:18:05.590Z,2.90
2023-04-22T15:20:40.209Z,2.90
2023-04-22T15:23:14.551Z,2.90
2023-04-22T15:25:48.872Z,3.00
2023-04-22T15:28:24.611Z,3.10
2023-04-22T15:30:59.076Z,2.80
2023-04-22T15:33:33.443Z,3.30
2023-04-22T15:36:09.815Z,2.70
2023-04-22T15:38:44.411Z,2.90
2023-04-22T15:41:18.936Z,2.90
2023-04-22T15:43:53.498Z,2.90
2023-04-22T15:46:29.192Z,2.70
2023-04-22T15:49:05.795Z,2.70
2023-04-22T15:51:40.171Z,2.50
2023-04-22T15:54:15.296Z,2.70
2023-04-22T15:56:49.418Z,2.50
2023-04-22T15:59:23.605Z,2.50
2023-04-22T16:01:57.979Z,2.50
2023-04-22T16:04:32.676Z,2.60
2023-04-22T16:07:07.177Z,2.50
2023-04-22T16:09:41.523Z,2.30
2023-04-22T16:12:16.433Z,2.60
2023-04-22T16:14:50.756Z,2.50
2023-04-22T16:17:25.189Z,2.50
2023-04-22T16:19:59.490Z,2.60
2023-04-22T16:22:34.057Z,2.40
2023-04-22T16:25:11.192Z,2.70
2023-04-22T16:27:45.390Z,2.30
2023-04-22T16:30:20.349Z,2.40
2023-04-22T16:32:54.932Z,2.70
2023-04-22T16:35:29.421Z,2.90
2023-04-22T16:38:03.938Z,3.10
2023-04-22T16:40:39.722Z,3.00
2023-04-22T16:43:14.072Z,3.50
2023-04-22T16:45:48.903Z,3.70
2023-04-22T16:48:23.202Z,3.70
2023-04-22T16:50:57.956Z,3.40
2023-04-22T16:53:32.799Z,2.90
2023-04-22T16:56:07.376Z,3.30
2023-04-22T16:58:41.621Z,3.10
2023-04-22T17:01:15.906Z,3.40
2023-04-22T17:03:50.487Z,3.70
2023-04-22T17:06:24.990Z,3.10
2023-04-22T17:09:00.214Z,3.20
2023-04-22T17:19:33.918Z,5.30
2023-04-22T17:22:08.196Z,5.40
2023-04-22T17:24:42.489Z,7.20
2023-04-22T17:27:16.661Z,7.50
2023-04-22T17:29:50.792Z,7.20
2023-04-22T17:32:25.039Z,6.60
2023-04-22T17:35:00.129Z,7.50
2023-04-22T17:37:34.358Z,7.20
2023-04-22T17:40:11.465Z,7.90
2023-04-22T17:42:46.594Z,7.40
2023-04-22T17:45:21.058Z,8.30
2023-04-22T17:47:55.393Z,18.20
2023-04-22T17:50:29.915Z,17.30
2023-04-22T17:53:04.080Z,15.70
2023-04-22T17:55:38.965Z,12.60
2023-04-22T17:58:13.191Z,11.20
2023-04-22T18:00:47.745Z,8.60
2023-04-22T18:03:22.803Z,8.20
2023-04-22T18:05:57.173Z,10.20
2023-04-22T18:08:31.830Z,12.40
2023-04-22T18:11:07.101Z,8.60
2023-04-22T18:13:41.520Z,13.30
2023-04-22T18:16:16.392Z,12.70
2023-04-22T18:18:50.908Z,9.90
2023-04-22T18:21:25.718Z,9.10
2023-04-22T18:24:00.158Z,8.20
2023-04-22T18:26:34.437Z,9.80
2023-04-22T18:29:09.310Z,14.70
2023-04-22T18:31:44.156Z,17.00
2023-04-22T18:34:18.428Z,16.00
2023-04-22T18:36:53.149Z,16.90
2023-04-22T18:39:27.475Z,22.60
2023-04-22T18:42:02.113Z,18.50
2023-04-22T18:44:36.621Z,19.80
2023-04-22T18:47:11.378Z,23.40
2023-04-22T18:49:46.154Z,23.70
2023-04-22T18:52:20.811Z,19.90
2023-04-22T18:54:55.070Z,21.50
2023-04-22T18:57:29.906Z,22.50
2023-04-22T19:00:06.602Z,19.70
2023-04-22T19:02:42.622Z,21.20
2023-04-22T19:05:18.291Z,20.10
2023-04-22T19:07:53.881Z,20.00
2023-04-22T19:10:28.643Z,17.10
2023-04-22T19:13:04.402Z,18.20
2023-04-22T19:15:38.709Z,21.10
2023-04-22T19:18:13.146Z,15.80
2023-04-22T19:20:48.621Z,14.10
2023-04-22T19:23:23.094Z,13.40
2023-04-22T19:25:57.668Z,14.70
2023-04-22T19:28:32.013Z,15.70
2023-04-22T19:31:07.540Z,15.80
2023-04-22T19:33:42.167Z,18.20
2023-04-22T19:36:16.909Z,20.50
2023-04-22T19:38:51.700Z,20.20
2023-04-22T19:41:26.440Z,21.20
2023-04-22T19:44:00.862Z,21.50
2023-04-22T19:46:37.013Z,20.80
2023-04-22T19:49:13.250Z,21.20
2023-04-22T19:51:49.927Z,19.80
2023-04-22T19:54:27.977Z,20.90
2023-04-22T19:57:06.655Z,21.30
2023-04-22T19:59:42.967Z,20.60
2023-04-22T20:02:19.093Z,20.40
2023-04-22T20:04:55.245Z,20.10
2023-04-22T20:07:31.404Z,17.90
2023-04-22T20:10:10.008Z,16.00
2023-04-22T20:12:45.361Z,14.70
2023-04-22T20:15:21.078Z,13.70
2023-04-22T20:17:58.557Z,13.80
2023-04-22T20:20:35.700Z,12.20
2023-04-22T20:23:12.925Z,10.00
2023-04-22T20:25:49.771Z,9.50
2023-04-22T20:28:31.779Z,9.00
2023-04-22T20:31:06.925Z,7.40
2023-04-22T20:33:42.473Z,8.20
2023-04-22T20:36:19.916Z,8.20
2023-04-22T20:38:56.314Z,8.10
2023-04-22T20:41:32.270Z,7.50
2023-04-22T20:44:07.086Z,7.50
2023-04-22T20:46:41.317Z,8.80
2023-04-22T20:49:15.597Z,9.20
2023-04-22T20:51:51.316Z,8.50
2023-04-22T20:54:29.213Z,7.30
2023-04-22T20:57:06.050Z,7.40
2023-04-22T20:59:40.430Z,7.50
2023-04-22T21:02:16.200Z,7.10
2023-04-22T21:04:51.878Z,6.60
2023-04-22T21:07:30.779Z,6.10
2023-04-22T21:10:06.770Z,7.00
2023-04-22T21:12:43.337Z,7.10
2023-04-22T21:15:20.421Z,6.80
2023-04-22T21:17:57.078Z,6.10
2023-04-22T21:20:33.188Z,6.20
2023-04-22T21:23:08.541Z,6.90
2023-04-22T21:25:45.451Z,6.50
2023-04-22T21:28:21.358Z,5.90
2023-04-22T21:30:57.217Z,6.40
2023-04-22T21:33:33.214Z,6.10
2023-04-22T21:36:08.298Z,11.30
2023-04-22T21:38:42.748Z,11.40
2023-04-22T21:41:17.544Z,10.10
2023-04-22T21:43:52.056Z,9.30
2023-04-22T21:46:26.417Z,8.00
2023-04-22T21:49:00.768Z,10.10
2023-04-22T21:51:36.156Z,8.20
2023-04-22T21:54:10.735Z,9.20
2023-04-22T21:56:45.098Z,9.00
2023-04-22T21:59:19.358Z,9.80
2023-04-22T22:01:54.414Z,10.00
2023-04-22T22:04:29.192Z,14.40
2023-04-22T22:07:04.068Z,11.60
2023-04-22T22:09:38.489Z,11.90
2023-04-22T22:12:12.772Z,12.00
2023-04-22T22:14:47.764Z,12.30
2023-04-22T22:17:22.226Z,12.90
2023-04-22T22:19:57.476Z,13.10
2023-04-22T22:22:33.017Z,12.90
2023-04-22T22:25:11.555Z,12.60
2023-04-22T22:27:47.206Z,11.90
2023-04-22T22:30:24.162Z,12.90
2023-04-22T22:32:58.391Z,10.40
2023-04-22T22:35:32.937Z,10.10
2023-04-22T22:38:07.230Z,9.60
2023-04-22T22:40:41.860Z,12.30
2023-04-22T22:43:16.309Z,12.30
2023-04-22T22:45:50.743Z,12.10
2023-04-22T22:48:25.311Z,11.00
2023-04-22T22:51:00.011Z,12.40
2023-04-22T22:53:36.465Z,12.20
2023-04-22T22:56:11.135Z,13.60
2023-04-22T22:58:46.271Z,13.70
2023-04-22T23:01:20.559Z,14.70
2023-04-22T23:03:54.992Z,14.20
2023-04-22T23:06:29.361Z,13.60
2023-04-22T23:09:04.901Z,14.40
2023-04-22T23:11:39.210Z,14.80
2023-04-22T23:14:13.869Z,13.60
2023-04-22T23:16:49.105Z,14.10
2023-04-22T23:19:24.042Z,13.70
2023-04-22T23:21:59.402Z,14.30
2023-04-22T23:24:35.700Z,13.40
2023-04-22T23:27:11.854Z,14.40
2023-04-22T23:29:47.691Z,15.60
2023-04-22T23:32:27.019Z,14.80
2023-04-22T23:35:03.819Z,15.30
2023-04-22T23:37:43.754Z,14.00
2023-04-22T23:40:21.059Z,16.00
2023-04-22T23:42:55.267Z,16.80
2023-04-22T23:45:29.425Z,18.20
2023-04-22T23:48:05.397Z,18.40
2023-04-22T23:50:40.128Z,19.50
2023-04-22T23:53:14.392Z,19.20
2023-04-22T23:55:50.607Z,19.60
2023-04-22T23:58:26.278Z,20.50
